sensor_id;sensor_type;location;lat;lon;timestamp;temperature;humidity
19090;DHT22;9677;50.656;13.064;2022-09-17T00:01:51;14.40;55.30
19090;DHT22;9677;50.656;13.064;2022-09-17T00:04:20;14.20;55.20
19090;DHT22;9677;50.656;13.064;2022-09-17T00:06:49;14.20;55.20
19090;DHT22;9677;50.656;13.064;2022-09-17T00:09:17;15.00;55.60
19090;DHT22;9677;50.656;13.064;2022-09-17T00:11:46;14.20;55.30
19090;DHT22;9677;50.656;13.064;2022-09-17T00:14:15;14.20;55.60
19090;DHT22;9677;50.656;13.064;2022-09-17T00:16:46;14.20;55.40
19090;DHT22;9677;50.656;13.064;2022-09-17T00:19:16;14.20;55.30
19090;DHT22;9677;50.656;13.064;2022-09-17T00:21:48;14.20;55.40
19090;DHT22;9677;50.656;13.064;2022-09-17T00:24:17;14.10;55.40
19090;DHT22;9677;50.656;13.064;2022-09-17T00:26:46;14.10;55.40
19090;DHT22;9677;50.656;13.064;2022-09-17T00:29:15;14.20;55.50
19090;DHT22;9677;50.656;13.064;2022-09-17T00:31:43;14.10;55.40
19090;DHT22;9677;50.656;13.064;2022-09-17T00:34:12;14.10;55.40
19090;DHT22;9677;50.656;13.064;2022-09-17T00:36:40;14.10;55.50
19090;DHT22;9677;50.656;13.064;2022-09-17T00:39:11;14.20;55.50
19090;DHT22;9677;50.656;13.064;2022-09-17T00:41:41;14.20;55.50
19090;DHT22;9677;50.656;13.064;2022-09-17T00:44:39;14.10;55.40
19090;DHT22;9677;50.656;13.064;2022-09-17T00:47:14;14.10;55.50
19090;DHT22;9677;50.656;13.064;2022-09-17T00:49:58;14.10;55.50
19090;DHT22;9677;50.656;13.064;2022-09-17T00:52:31;14.10;55.50
19090;DHT22;9677;50.656;13.064;2022-09-17T00:55:08;14.10;55.50
19090;DHT22;9677;50.656;13.064;2022-09-17T00:57:40;14.10;55.60
19090;DHT22;9677;50.656;13.064;2022-09-17T01:00:10;14.20;55.60
19090;DHT22;9677;50.656;13.064;2022-09-17T01:02:40;14.20;55.60
19090;DHT22;9677;50.656;13.064;2022-09-17T01:05:10;14.20;55.60
19090;DHT22;9677;50.656;13.064;2022-09-17T01:07:56;14.20;55.60
19090;DHT22;9677;50.656;13.064;2022-09-17T01:10:49;14.20;55.60
19090;DHT22;9677;50.656;13.064;2022-09-17T01:13:54;14.20;55.60
19090;DHT22;9677;50.656;13.064;2022-09-17T01:16:36;14.20;55.60
19090;DHT22;9677;50.656;13.064;2022-09-17T01:19:26;14.20;55.60
19090;DHT22;9677;50.656;13.064;2022-09-17T01:22:20;14.20;55.60
19090;DHT22;9677;50.656;13.064;2022-09-17T01:25:19;14.20;55.60
19090;DHT22;9677;50.656;13.064;2022-09-17T01:28:26;14.20;55.50
19090;DHT22;9677;50.656;13.064;2022-09-17T01:34:07;14.20;55.50
19090;DHT22;9677;50.656;13.064;2022-09-17T01:36:50;14.20;55.60
19090;DHT22;9677;50.656;13.064;2022-09-17T01:39:31;14.30;55.60
19090;DHT22;9677;50.656;13.064;2022-09-17T01:42:13;14.30;55.60
19090;DHT22;9677;50.656;13.064;2022-09-17T01:44:49;14.20;55.60
19090;DHT22;9677;50.656;13.064;2022-09-17T01:47:23;14.30;55.60
19090;DHT22;9677;50.656;13.064;2022-09-17T01:49:58;14.30;55.60
19090;DHT22;9677;50.656;13.064;2022-09-17T01:52:31;14.30;55.60
19090;DHT22;9677;50.656;13.064;2022-09-17T01:55:03;14.30;55.60
19090;DHT22;9677;50.656;13.064;2022-09-17T01:57:36;14.30;55.60
19090;DHT22;9677;50.656;13.064;2022-09-17T02:00:09;14.30;55.50
19090;DHT22;9677;50.656;13.064;2022-09-17T02:02:43;14.30;55.50
19090;DHT22;9677;50.656;13.064;2022-09-17T02:05:17;14.30;55.50
19090;DHT22;9677;50.656;13.064;2022-09-17T02:07:51;14.30;55.50
19090;DHT22;9677;50.656;13.064;2022-09-17T02:10:22;14.30;55.60
19090;DHT22;9677;50.656;13.064;2022-09-17T02:12:56;14.30;55.60
19090;DHT22;9677;50.656;13.064;2022-09-17T02:15:31;14.30;55.70
19090;DHT22;9677;50.656;13.064;2022-09-17T02:18:06;14.30;55.70
19090;DHT22;9677;50.656;13.064;2022-09-17T02:20:41;14.30;55.70
19090;DHT22;9677;50.656;13.064;2022-09-17T02:23:14;14.30;55.70
19090;DHT22;9677;50.656;13.064;2022-09-17T02:25:51;14.40;55.70
19090;DHT22;9677;50.656;13.064;2022-09-17T02:28:26;14.40;55.60
19090;DHT22;9677;50.656;13.064;2022-09-17T02:31:00;14.50;55.70
19090;DHT22;9677;50.656;13.064;2022-09-17T02:33:31;14.40;55.70
19090;DHT22;9677;50.656;13.064;2022-09-17T02:36:00;14.40;55.70
19090;DHT22;9677;50.656;13.064;2022-09-17T02:38:32;14.40;55.70
19090;DHT22;9677;50.656;13.064;2022-09-17T02:41:05;14.40;55.70
19090;DHT22;9677;50.656;13.064;2022-09-17T02:43:43;14.40;55.70
19090;DHT22;9677;50.656;13.064;2022-09-17T02:46:31;14.40;55.80
19090;DHT22;9677;50.656;13.064;2022-09-17T02:49:23;14.40;55.80
19090;DHT22;9677;50.656;13.064;2022-09-17T02:52:05;14.40;55.80
19090;DHT22;9677;50.656;13.064;2022-09-17T02:54:40;14.40;55.80
19090;DHT22;9677;50.656;13.064;2022-09-17T02:57:17;14.40;55.80
19090;DHT22;9677;50.656;13.064;2022-09-17T02:59:54;14.40;55.80
19090;DHT22;9677;50.656;13.064;2022-09-17T03:02:26;14.30;55.90
19090;DHT22;9677;50.656;13.064;2022-09-17T03:04:59;14.30;55.80
19090;DHT22;9677;50.656;13.064;2022-09-17T03:07:28;14.30;56.00
19090;DHT22;9677;50.656;13.064;2022-09-17T03:09:56;14.30;55.90
19090;DHT22;9677;50.656;13.064;2022-09-17T03:12:24;14.30;55.90
19090;DHT22;9677;50.656;13.064;2022-09-17T03:14:53;14.30;56.00
19090;DHT22;9677;50.656;13.064;2022-09-17T03:17:21;14.20;56.10
19090;DHT22;9677;50.656;13.064;2022-09-17T03:19:50;14.20;56.30
19090;DHT22;9677;50.656;13.064;2022-09-17T03:22:19;14.20;56.40
19090;DHT22;9677;50.656;13.064;2022-09-17T03:24:48;14.20;56.40
19090;DHT22;9677;50.656;13.064;2022-09-17T03:27:16;14.20;56.40
19090;DHT22;9677;50.656;13.064;2022-09-17T03:29:45;14.20;56.50
19090;DHT22;9677;50.656;13.064;2022-09-17T03:32:13;14.70;56.70
19090;DHT22;9677;50.656;13.064;2022-09-17T03:34:41;14.20;56.50
19090;DHT22;9677;50.656;13.064;2022-09-17T03:37:10;14.20;56.60
19090;DHT22;9677;50.656;13.064;2022-09-17T03:39:39;14.20;57.20
19090;DHT22;9677;50.656;13.064;2022-09-17T03:42:07;14.20;56.70
19090;DHT22;9677;50.656;13.064;2022-09-17T03:44:36;14.20;56.80
19090;DHT22;9677;50.656;13.064;2022-09-17T03:47:10;14.20;56.80
19090;DHT22;9677;50.656;13.064;2022-09-17T03:49:39;14.20;56.80
19090;DHT22;9677;50.656;13.064;2022-09-17T03:52:07;14.20;56.80
19090;DHT22;9677;50.656;13.064;2022-09-17T03:54:36;14.20;56.80
19090;DHT22;9677;50.656;13.064;2022-09-17T03:57:05;14.20;56.80
19090;DHT22;9677;50.656;13.064;2022-09-17T03:59:34;14.20;56.90
19090;DHT22;9677;50.656;13.064;2022-09-17T04:02:02;14.20;56.90
19090;DHT22;9677;50.656;13.064;2022-09-17T04:04:30;14.20;56.90
19090;DHT22;9677;50.656;13.064;2022-09-17T04:06:59;14.30;56.90
19090;DHT22;9677;50.656;13.064;2022-09-17T04:09:27;14.20;56.90
19090;DHT22;9677;50.656;13.064;2022-09-17T04:11:56;14.20;57.60
19090;DHT22;9677;50.656;13.064;2022-09-17T04:14:26;14.20;56.90
19090;DHT22;9677;50.656;13.064;2022-09-17T04:16:54;14.10;56.90
19090;DHT22;9677;50.656;13.064;2022-09-17T04:19:23;14.10;56.90
19090;DHT22;9677;50.656;13.064;2022-09-17T04:21:51;14.10;57.10
19090;DHT22;9677;50.656;13.064;2022-09-17T04:24:19;14.10;57.20
19090;DHT22;9677;50.656;13.064;2022-09-17T04:26:48;14.10;57.20
19090;DHT22;9677;50.656;13.064;2022-09-17T04:29:16;14.10;57.20
19090;DHT22;9677;50.656;13.064;2022-09-17T04:31:46;14.10;57.30
19090;DHT22;9677;50.656;13.064;2022-09-17T04:34:14;14.10;57.30
19090;DHT22;9677;50.656;13.064;2022-09-17T04:36:42;14.10;57.30
19090;DHT22;9677;50.656;13.064;2022-09-17T04:39:11;14.10;57.40
19090;DHT22;9677;50.656;13.064;2022-09-17T04:41:39;14.10;57.40
19090;DHT22;9677;50.656;13.064;2022-09-17T04:44:07;14.10;57.50
19090;DHT22;9677;50.656;13.064;2022-09-17T04:46:36;14.10;57.50
19090;DHT22;9677;50.656;13.064;2022-09-17T04:49:05;14.10;57.60
19090;DHT22;9677;50.656;13.064;2022-09-17T04:51:34;14.10;57.70
19090;DHT22;9677;50.656;13.064;2022-09-17T04:54:03;14.20;57.80
19090;DHT22;9677;50.656;13.064;2022-09-17T04:56:31;14.10;57.70
19090;DHT22;9677;50.656;13.064;2022-09-17T04:59:00;14.10;57.70
19090;DHT22;9677;50.656;13.064;2022-09-17T05:01:28;14.10;57.70
19090;DHT22;9677;50.656;13.064;2022-09-17T05:03:56;14.10;57.70
19090;DHT22;9677;50.656;13.064;2022-09-17T05:06:26;14.10;57.70
19090;DHT22;9677;50.656;13.064;2022-09-17T05:08:54;14.10;57.70
19090;DHT22;9677;50.656;13.064;2022-09-17T05:11:23;14.10;57.70
19090;DHT22;9677;50.656;13.064;2022-09-17T05:13:51;14.10;57.70
19090;DHT22;9677;50.656;13.064;2022-09-17T05:16:19;14.10;57.60
19090;DHT22;9677;50.656;13.064;2022-09-17T05:18:48;14.10;57.60
19090;DHT22;9677;50.656;13.064;2022-09-17T05:21:17;14.10;57.60
19090;DHT22;9677;50.656;13.064;2022-09-17T05:23:47;14.10;57.70
19090;DHT22;9677;50.656;13.064;2022-09-17T05:26:16;14.10;57.80
19090;DHT22;9677;50.656;13.064;2022-09-17T05:28:44;14.10;57.70
19090;DHT22;9677;50.656;13.064;2022-09-17T05:31:13;14.10;57.80
19090;DHT22;9677;50.656;13.064;2022-09-17T05:33:41;14.10;57.80
19090;DHT22;9677;50.656;13.064;2022-09-17T05:36:10;14.10;57.80
19090;DHT22;9677;50.656;13.064;2022-09-17T05:38:38;14.10;57.80
19090;DHT22;9677;50.656;13.064;2022-09-17T05:41:08;14.10;57.90
19090;DHT22;9677;50.656;13.064;2022-09-17T05:43:36;14.10;58.00
19090;DHT22;9677;50.656;13.064;2022-09-17T05:46:05;14.10;58.00
19090;DHT22;9677;50.656;13.064;2022-09-17T05:48:33;14.10;58.00
19090;DHT22;9677;50.656;13.064;2022-09-17T05:51:02;14.10;58.10
19090;DHT22;9677;50.656;13.064;2022-09-17T05:53:30;14.10;58.00
19090;DHT22;9677;50.656;13.064;2022-09-17T05:55:59;14.10;58.00
19090;DHT22;9677;50.656;13.064;2022-09-17T05:58:28;14.10;58.00
19090;DHT22;9677;50.656;13.064;2022-09-17T06:00:59;14.10;58.10
19090;DHT22;9677;50.656;13.064;2022-09-17T06:03:28;14.10;58.10
19090;DHT22;9677;50.656;13.064;2022-09-17T06:05:57;14.10;58.00
19090;DHT22;9677;50.656;13.064;2022-09-17T06:08:27;14.00;58.10
19090;DHT22;9677;50.656;13.064;2022-09-17T06:10:56;14.10;58.30
19090;DHT22;9677;50.656;13.064;2022-09-17T06:13:29;14.00;58.30
19090;DHT22;9677;50.656;13.064;2022-09-17T06:15:59;14.00;58.40
19090;DHT22;9677;50.656;13.064;2022-09-17T06:18:29;14.00;58.50
19090;DHT22;9677;50.656;13.064;2022-09-17T06:20:58;14.00;58.40
19090;DHT22;9677;50.656;13.064;2022-09-17T06:23:30;14.00;58.40
19090;DHT22;9677;50.656;13.064;2022-09-17T06:26:02;14.00;58.50
19090;DHT22;9677;50.656;13.064;2022-09-17T06:28:32;14.10;58.60
19090;DHT22;9677;50.656;13.064;2022-09-17T06:31:08;14.10;58.50
19090;DHT22;9677;50.656;13.064;2022-09-17T06:33:38;14.10;58.60
19090;DHT22;9677;50.656;13.064;2022-09-17T06:36:08;14.10;58.60
19090;DHT22;9677;50.656;13.064;2022-09-17T06:38:41;14.10;58.60
19090;DHT22;9677;50.656;13.064;2022-09-17T06:41:09;14.10;58.70
19090;DHT22;9677;50.656;13.064;2022-09-17T06:43:39;14.40;58.80
19090;DHT22;9677;50.656;13.064;2022-09-17T06:46:08;14.10;58.70
19090;DHT22;9677;50.656;13.064;2022-09-17T06:48:37;14.20;58.70
19090;DHT22;9677;50.656;13.064;2022-09-17T06:51:07;14.20;58.70
19090;DHT22;9677;50.656;13.064;2022-09-17T06:53:37;14.20;58.70
19090;DHT22;9677;50.656;13.064;2022-09-17T06:56:07;14.20;58.70
19090;DHT22;9677;50.656;13.064;2022-09-17T06:58:38;14.20;58.80
19090;DHT22;9677;50.656;13.064;2022-09-17T07:01:08;14.20;58.80
19090;DHT22;9677;50.656;13.064;2022-09-17T07:03:37;14.20;59.40
19090;DHT22;9677;50.656;13.064;2022-09-17T07:06:07;14.30;58.90
19090;DHT22;9677;50.656;13.064;2022-09-17T07:08:36;14.20;59.00
19090;DHT22;9677;50.656;13.064;2022-09-17T07:11:05;14.20;59.10
19090;DHT22;9677;50.656;13.064;2022-09-17T07:13:34;14.20;59.10
19090;DHT22;9677;50.656;13.064;2022-09-17T07:16:05;14.30;59.10
19090;DHT22;9677;50.656;13.064;2022-09-17T07:18:33;14.30;59.10
19090;DHT22;9677;50.656;13.064;2022-09-17T07:21:04;14.30;59.10
19090;DHT22;9677;50.656;13.064;2022-09-17T07:23:34;14.30;59.30
19090;DHT22;9677;50.656;13.064;2022-09-17T07:26:05;14.30;59.20
19090;DHT22;9677;50.656;13.064;2022-09-17T07:28:37;14.30;59.10
19090;DHT22;9677;50.656;13.064;2022-09-17T07:31:08;14.30;59.20
19090;DHT22;9677;50.656;13.064;2022-09-17T07:33:43;14.40;59.40
19090;DHT22;9677;50.656;13.064;2022-09-17T07:36:13;14.40;59.40
19090;DHT22;9677;50.656;13.064;2022-09-17T07:38:44;14.40;59.30
19090;DHT22;9677;50.656;13.064;2022-09-17T07:41:14;14.40;59.40
19090;DHT22;9677;50.656;13.064;2022-09-17T07:43:43;14.40;59.30
19090;DHT22;9677;50.656;13.064;2022-09-17T07:46:15;14.40;59.30
19090;DHT22;9677;50.656;13.064;2022-09-17T07:48:45;14.40;59.40
19090;DHT22;9677;50.656;13.064;2022-09-17T07:51:15;14.40;59.50
19090;DHT22;9677;50.656;13.064;2022-09-17T07:53:44;14.70;59.50
19090;DHT22;9677;50.656;13.064;2022-09-17T07:56:13;14.30;59.40
19090;DHT22;9677;50.656;13.064;2022-09-17T07:58:42;14.40;59.50
19090;DHT22;9677;50.656;13.064;2022-09-17T08:01:13;14.40;59.50
19090;DHT22;9677;50.656;13.064;2022-09-17T08:03:46;14.40;59.60
19090;DHT22;9677;50.656;13.064;2022-09-17T08:06:17;14.40;59.60
19090;DHT22;9677;50.656;13.064;2022-09-17T08:08:47;14.40;59.60
19090;DHT22;9677;50.656;13.064;2022-09-17T08:11:17;14.40;59.50
19090;DHT22;9677;50.656;13.064;2022-09-17T08:14:09;14.50;59.60
19090;DHT22;9677;50.656;13.064;2022-09-17T08:16:40;14.50;59.60
19090;DHT22;9677;50.656;13.064;2022-09-17T08:19:11;14.50;59.60
19090;DHT22;9677;50.656;13.064;2022-09-17T08:21:39;14.60;59.60
19090;DHT22;9677;50.656;13.064;2022-09-17T08:24:08;14.50;59.60
19090;DHT22;9677;50.656;13.064;2022-09-17T08:26:36;14.50;59.50
19090;DHT22;9677;50.656;13.064;2022-09-17T08:29:06;14.50;59.50
19090;DHT22;9677;50.656;13.064;2022-09-17T08:31:34;14.60;59.50
19090;DHT22;9677;50.656;13.064;2022-09-17T08:34:07;14.60;59.50
19090;DHT22;9677;50.656;13.064;2022-09-17T08:36:37;14.60;59.50
19090;DHT22;9677;50.656;13.064;2022-09-17T08:39:06;14.60;59.40
19090;DHT22;9677;50.656;13.064;2022-09-17T08:41:48;14.60;59.40
19090;DHT22;9677;50.656;13.064;2022-09-17T08:44:24;14.60;59.40
19090;DHT22;9677;50.656;13.064;2022-09-17T08:46:58;14.60;59.40
19090;DHT22;9677;50.656;13.064;2022-09-17T08:49:34;14.70;59.50
19090;DHT22;9677;50.656;13.064;2022-09-17T08:52:16;14.70;59.60
19090;DHT22;9677;50.656;13.064;2022-09-17T08:55:22;14.70;59.80
19090;DHT22;9677;50.656;13.064;2022-09-17T08:58:09;14.70;59.80
19090;DHT22;9677;50.656;13.064;2022-09-17T09:00:52;14.70;59.70
19090;DHT22;9677;50.656;13.064;2022-09-17T09:03:31;14.80;59.60
19090;DHT22;9677;50.656;13.064;2022-09-17T09:06:09;14.80;59.60
19090;DHT22;9677;50.656;13.064;2022-09-17T09:08:42;14.80;59.60
19090;DHT22;9677;50.656;13.064;2022-09-17T09:11:16;14.80;59.60
19090;DHT22;9677;50.656;13.064;2022-09-17T09:13:53;14.90;59.50
19090;DHT22;9677;50.656;13.064;2022-09-17T09:16:24;14.90;59.50
19090;DHT22;9677;50.656;13.064;2022-09-17T09:18:59;14.90;59.50
19090;DHT22;9677;50.656;13.064;2022-09-17T09:21:40;14.90;59.80
19090;DHT22;9677;50.656;13.064;2022-09-17T09:24:19;15.00;59.70
19090;DHT22;9677;50.656;13.064;2022-09-17T09:26:56;15.00;59.70
19090;DHT22;9677;50.656;13.064;2022-09-17T09:29:35;15.10;59.70
19090;DHT22;9677;50.656;13.064;2022-09-17T09:32:22;15.10;59.60
19090;DHT22;9677;50.656;13.064;2022-09-17T09:34:55;15.10;59.50
19090;DHT22;9677;50.656;13.064;2022-09-17T09:37:28;15.10;59.40
19090;DHT22;9677;50.656;13.064;2022-09-17T09:40:04;15.20;59.50
19090;DHT22;9677;50.656;13.064;2022-09-17T09:42:44;15.20;59.60
19090;DHT22;9677;50.656;13.064;2022-09-17T09:45:15;15.40;59.70
19090;DHT22;9677;50.656;13.064;2022-09-17T09:47:53;15.60;59.90
19090;DHT22;9677;50.656;13.064;2022-09-17T09:50:32;15.40;59.90
19090;DHT22;9677;50.656;13.064;2022-09-17T09:53:34;15.50;59.80
19090;DHT22;9677;50.656;13.064;2022-09-17T09:56:27;15.60;59.20
19090;DHT22;9677;50.656;13.064;2022-09-17T09:59:06;15.70;59.10
19090;DHT22;9677;50.656;13.064;2022-09-17T10:01:39;15.70;58.50
19090;DHT22;9677;50.656;13.064;2022-09-17T10:04:16;15.70;58.00
19090;DHT22;9677;50.656;13.064;2022-09-17T10:06:47;15.70;58.50
19090;DHT22;9677;50.656;13.064;2022-09-17T10:09:18;15.70;57.90
19090;DHT22;9677;50.656;13.064;2022-09-17T10:12:13;15.60;57.90
19090;DHT22;9677;50.656;13.064;2022-09-17T10:14:44;15.60;57.90
19090;DHT22;9677;50.656;13.064;2022-09-17T10:17:19;15.60;58.00
19090;DHT22;9677;50.656;13.064;2022-09-17T10:20:13;15.60;57.90
19090;DHT22;9677;50.656;13.064;2022-09-17T10:22:49;15.60;57.80
19090;DHT22;9677;50.656;13.064;2022-09-17T10:25:26;15.50;57.70
19090;DHT22;9677;50.656;13.064;2022-09-17T10:27:56;15.50;57.60
19090;DHT22;9677;50.656;13.064;2022-09-17T10:30:26;15.40;57.50
19090;DHT22;9677;50.656;13.064;2022-09-17T10:33:15;15.40;57.60
19090;DHT22;9677;50.656;13.064;2022-09-17T10:35:58;15.40;57.80
19090;DHT22;9677;50.656;13.064;2022-09-17T10:38:30;15.40;58.10
19090;DHT22;9677;50.656;13.064;2022-09-17T10:41:10;15.40;58.30
19090;DHT22;9677;50.656;13.064;2022-09-17T10:43:41;15.40;58.40
19090;DHT22;9677;50.656;13.064;2022-09-17T10:46:14;15.40;58.30
19090;DHT22;9677;50.656;13.064;2022-09-17T10:48:52;15.50;58.40
19090;DHT22;9677;50.656;13.064;2022-09-17T10:51:25;15.50;58.50
19090;DHT22;9677;50.656;13.064;2022-09-17T10:54:23;15.60;58.50
19090;DHT22;9677;50.656;13.064;2022-09-17T10:57:02;15.60;59.10
19090;DHT22;9677;50.656;13.064;2022-09-17T10:59:55;15.70;58.50
19090;DHT22;9677;50.656;13.064;2022-09-17T11:09:20;15.90;58.40
19090;DHT22;9677;50.656;13.064;2022-09-17T11:12:04;16.00;58.60
19090;DHT22;9677;50.656;13.064;2022-09-17T11:14:50;16.00;58.70
19090;DHT22;9677;50.656;13.064;2022-09-17T11:20:28;16.20;58.30
19090;DHT22;9677;50.656;13.064;2022-09-17T11:23:21;16.30;57.90
19090;DHT22;9677;50.656;13.064;2022-09-17T11:25:55;16.30;57.80
19090;DHT22;9677;50.656;13.064;2022-09-17T11:28:46;16.40;58.00
19090;DHT22;9677;50.656;13.064;2022-09-17T11:31:29;16.40;57.90
19090;DHT22;9677;50.656;13.064;2022-09-17T11:34:28;16.50;57.80
19090;DHT22;9677;50.656;13.064;2022-09-17T11:37:03;16.60;57.60
19090;DHT22;9677;50.656;13.064;2022-09-17T11:39:40;16.60;57.40
19090;DHT22;9677;50.656;13.064;2022-09-17T11:42:17;16.60;57.20
19090;DHT22;9677;50.656;13.064;2022-09-17T11:44:51;16.60;57.10
19090;DHT22;9677;50.656;13.064;2022-09-17T11:47:24;16.60;57.20
19090;DHT22;9677;50.656;13.064;2022-09-17T11:50:00;16.60;57.40
19090;DHT22;9677;50.656;13.064;2022-09-17T11:52:36;16.70;57.70
19090;DHT22;9677;50.656;13.064;2022-09-17T11:55:15;16.70;57.70
19090;DHT22;9677;50.656;13.064;2022-09-17T11:57:48;16.70;57.40
19090;DHT22;9677;50.656;13.064;2022-09-17T12:00:20;16.70;57.30
19090;DHT22;9677;50.656;13.064;2022-09-17T12:02:52;16.80;57.10
19090;DHT22;9677;50.656;13.064;2022-09-17T12:05:27;16.80;57.10
19090;DHT22;9677;50.656;13.064;2022-09-17T12:08:03;16.80;57.20
19090;DHT22;9677;50.656;13.064;2022-09-17T12:10:46;16.80;56.90
19090;DHT22;9677;50.656;13.064;2022-09-17T12:13:23;16.90;57.00
19090;DHT22;9677;50.656;13.064;2022-09-17T12:16:05;16.90;56.90
19090;DHT22;9677;50.656;13.064;2022-09-17T12:18:47;16.90;57.00
19090;DHT22;9677;50.656;13.064;2022-09-17T12:21:21;16.90;56.90
19090;DHT22;9677;50.656;13.064;2022-09-17T12:23:56;17.00;57.10
19090;DHT22;9677;50.656;13.064;2022-09-17T12:26:33;17.10;57.00
19090;DHT22;9677;50.656;13.064;2022-09-17T12:29:27;17.10;56.90
19090;DHT22;9677;50.656;13.064;2022-09-17T12:32:11;17.20;56.90
19090;DHT22;9677;50.656;13.064;2022-09-17T12:34:54;17.30;57.10
19090;DHT22;9677;50.656;13.064;2022-09-17T12:37:32;17.30;56.80
19090;DHT22;9677;50.656;13.064;2022-09-17T12:40:14;17.40;57.00
19090;DHT22;9677;50.656;13.064;2022-09-17T12:45:50;17.60;55.60
19090;DHT22;9677;50.656;13.064;2022-09-17T12:51:41;17.60;55.10
19090;DHT22;9677;50.656;13.064;2022-09-17T12:54:46;17.60;55.30
19090;DHT22;9677;50.656;13.064;2022-09-17T12:57:31;17.70;55.40
19090;DHT22;9677;50.656;13.064;2022-09-17T13:00:07;17.80;55.00
19090;DHT22;9677;50.656;13.064;2022-09-17T13:02:40;17.80;55.10
19090;DHT22;9677;50.656;13.064;2022-09-17T13:05:30;17.80;54.80
19090;DHT22;9677;50.656;13.064;2022-09-17T13:08:31;17.80;54.60
19090;DHT22;9677;50.656;13.064;2022-09-17T13:11:39;17.80;54.90
19090;DHT22;9677;50.656;13.064;2022-09-17T13:14:36;17.90;54.50
19090;DHT22;9677;50.656;13.064;2022-09-17T13:17:41;17.90;53.90
19090;DHT22;9677;50.656;13.064;2022-09-17T13:20:32;17.90;53.10
19090;DHT22;9677;50.656;13.064;2022-09-17T13:23:01;17.80;53.10
19090;DHT22;9677;50.656;13.064;2022-09-17T13:25:30;17.80;53.20
19090;DHT22;9677;50.656;13.064;2022-09-17T13:28:07;17.70;52.90
19090;DHT22;9677;50.656;13.064;2022-09-17T13:30:56;17.60;52.60
19090;DHT22;9677;50.656;13.064;2022-09-17T13:33:47;17.50;52.20
19090;DHT22;9677;50.656;13.064;2022-09-17T13:36:54;17.40;52.60
19090;DHT22;9677;50.656;13.064;2022-09-17T13:39:41;17.40;52.40
19090;DHT22;9677;50.656;13.064;2022-09-17T13:42:18;17.20;52.80
19090;DHT22;9677;50.656;13.064;2022-09-17T13:44:51;17.20;53.10
19090;DHT22;9677;50.656;13.064;2022-09-17T13:47:24;17.10;53.30
19090;DHT22;9677;50.656;13.064;2022-09-17T13:49:56;17.20;53.60
19090;DHT22;9677;50.656;13.064;2022-09-17T13:52:40;17.20;53.90
19090;DHT22;9677;50.656;13.064;2022-09-17T13:55:29;17.20;53.70
19090;DHT22;9677;50.656;13.064;2022-09-17T13:58:01;17.20;53.70
19090;DHT22;9677;50.656;13.064;2022-09-17T14:00:50;17.20;54.10
19090;DHT22;9677;50.656;13.064;2022-09-17T14:03:50;17.20;53.40
19090;DHT22;9677;50.656;13.064;2022-09-17T14:06:48;17.30;53.50
19090;DHT22;9677;50.656;13.064;2022-09-17T14:09:49;17.20;53.30
19090;DHT22;9677;50.656;13.064;2022-09-17T14:12:51;17.30;53.40
19090;DHT22;9677;50.656;13.064;2022-09-17T14:15:34;17.30;53.70
19090;DHT22;9677;50.656;13.064;2022-09-17T14:18:32;17.40;53.70
19090;DHT22;9677;50.656;13.064;2022-09-17T14:21:12;17.40;53.90
19090;DHT22;9677;50.656;13.064;2022-09-17T14:23:44;17.50;53.60
19090;DHT22;9677;50.656;13.064;2022-09-17T14:26:23;17.50;53.70
19090;DHT22;9677;50.656;13.064;2022-09-17T14:29:03;17.50;53.30
19090;DHT22;9677;50.656;13.064;2022-09-17T14:31:36;17.50;53.30
19090;DHT22;9677;50.656;13.064;2022-09-17T14:34:05;17.50;53.40
19090;DHT22;9677;50.656;13.064;2022-09-17T14:36:38;17.50;53.40
19090;DHT22;9677;50.656;13.064;2022-09-17T14:39:14;17.50;53.20
19090;DHT22;9677;50.656;13.064;2022-09-17T14:41:50;17.50;53.30
19090;DHT22;9677;50.656;13.064;2022-09-17T14:44:20;17.50;53.00
19090;DHT22;9677;50.656;13.064;2022-09-17T14:46:54;17.50;53.40
19090;DHT22;9677;50.656;13.064;2022-09-17T14:49:25;17.50;53.00
19090;DHT22;9677;50.656;13.064;2022-09-17T14:51:55;17.50;53.20
19090;DHT22;9677;50.656;13.064;2022-09-17T14:54:24;17.60;52.70
19090;DHT22;9677;50.656;13.064;2022-09-17T14:56:58;17.40;51.80
19090;DHT22;9677;50.656;13.064;2022-09-17T14:59:46;17.40;51.40
19090;DHT22;9677;50.656;13.064;2022-09-17T15:02:26;17.30;51.30
19090;DHT22;9677;50.656;13.064;2022-09-17T15:04:56;17.30;51.70
19090;DHT22;9677;50.656;13.064;2022-09-17T15:07:25;17.10;51.70
19090;DHT22;9677;50.656;13.064;2022-09-17T15:10:05;17.10;52.00
19090;DHT22;9677;50.656;13.064;2022-09-17T15:12:56;17.10;52.10
19090;DHT22;9677;50.656;13.064;2022-09-17T15:15:25;17.10;52.40
19090;DHT22;9677;50.656;13.064;2022-09-17T15:17:54;17.10;52.50
19090;DHT22;9677;50.656;13.064;2022-09-17T15:20:24;17.20;52.60
19090;DHT22;9677;50.656;13.064;2022-09-17T15:23:03;17.20;52.70
19090;DHT22;9677;50.656;13.064;2022-09-17T15:25:35;17.20;52.60
19090;DHT22;9677;50.656;13.064;2022-09-17T15:28:16;17.20;52.70
19090;DHT22;9677;50.656;13.064;2022-09-17T15:30:49;17.20;52.50
19090;DHT22;9677;50.656;13.064;2022-09-17T15:33:18;17.20;52.70
19090;DHT22;9677;50.656;13.064;2022-09-17T15:35:58;17.30;52.70
19090;DHT22;9677;50.656;13.064;2022-09-17T15:38:29;17.20;52.20
19090;DHT22;9677;50.656;13.064;2022-09-17T15:41:21;17.30;52.50
19090;DHT22;9677;50.656;13.064;2022-09-17T15:43:53;17.50;52.40
19090;DHT22;9677;50.656;13.064;2022-09-17T15:46:53;17.30;52.70
19090;DHT22;9677;50.656;13.064;2022-09-17T15:49:27;17.30;52.60
19090;DHT22;9677;50.656;13.064;2022-09-17T15:52:29;17.30;52.50
19090;DHT22;9677;50.656;13.064;2022-09-17T15:55:01;17.30;52.40
19090;DHT22;9677;50.656;13.064;2022-09-17T15:57:30;17.30;52.50
19090;DHT22;9677;50.656;13.064;2022-09-17T16:00:11;17.30;52.50
19090;DHT22;9677;50.656;13.064;2022-09-17T16:02:41;17.30;52.40
19090;DHT22;9677;50.656;13.064;2022-09-17T16:08:23;17.20;52.30
19090;DHT22;9677;50.656;13.064;2022-09-17T16:10:51;17.20;52.50
19090;DHT22;9677;50.656;13.064;2022-09-17T16:13:20;17.20;52.50
19090;DHT22;9677;50.656;13.064;2022-09-17T16:15:55;17.20;52.60
19090;DHT22;9677;50.656;13.064;2022-09-17T16:18:24;17.20;52.60
19090;DHT22;9677;50.656;13.064;2022-09-17T16:20:53;17.20;52.60
19090;DHT22;9677;50.656;13.064;2022-09-17T16:23:21;17.20;52.40
19090;DHT22;9677;50.656;13.064;2022-09-17T16:25:50;17.20;52.20
19090;DHT22;9677;50.656;13.064;2022-09-17T16:28:19;17.20;51.90
19090;DHT22;9677;50.656;13.064;2022-09-17T16:30:48;17.20;51.40
19090;DHT22;9677;50.656;13.064;2022-09-17T16:33:18;17.10;51.00
19090;DHT22;9677;50.656;13.064;2022-09-17T16:35:46;17.10;51.10
19090;DHT22;9677;50.656;13.064;2022-09-17T16:38:14;17.00;51.00
19090;DHT22;9677;50.656;13.064;2022-09-17T16:40:44;16.90;50.90
19090;DHT22;9677;50.656;13.064;2022-09-17T16:43:13;16.90;51.00